Time;durP1;ratioP1;P1;durP2;ratioP2;P2;SDS_P1;SDS_P2;PMS_P1;PMS_P2;Temp;Humidity;BMP_temperature;BMP_pressure;BME280_temperature;BME280_humidity;BME280_pressure;Samples;Min_cycle;Max_cycle;Signal;HPM_P1;HPM_P2
2021/12/24 00:00:35;;;;;;;92.10;42.67;;;3.80;99.90;;;;;;5118185;27;20200;-54
2021/12/24 00:03:05;;;;;;;83.03;41.53;;;3.80;99.90;;;;;;5114754;28;20730;-53
2021/12/24 00:05:35;;;;;;;69.87;38.00;;;3.80;99.90;;;;;;5114639;28;20233;-53
2021/12/24 00:08:04;;;;;;;65.67;36.27;;;3.80;99.90;;;;;;5127986;27;20725;-54
2021/12/24 00:10:32;;;;;;;96.93;42.60;;;3.80;99.90;;;;;;5135738;27;20231;-54
2021/12/24 00:13:05;;;;;;;86.13;41.07;;;3.80;99.90;;;;;;5135160;27;20204;-55
2021/12/24 00:15:52;;;;;;;85.67;39.30;;;3.90;99.90;;;;;;5135176;27;20220;-54
2021/12/24 00:18:38;;;;;;;117.63;41.63;;;3.90;99.90;;;;;;5135014;27;20648;-54
2021/12/24 00:35:17;;;;;;;214.77;40.93;;;4.00;99.90;;;;;;5150443;27;20278;-55
2021/12/24 00:37:47;;;;;;;473.47;59.50;;;3.90;99.90;;;;;;5134941;27;20225;-54
2021/12/24 00:40:19;;;;;;;395.17;59.33;;;3.90;99.90;;;;;;5134955;27;20252;-54
2021/12/24 00:42:51;;;;;;;209.57;40.87;;;4.00;99.90;;;;;;5132644;27;20222;-53
2021/12/24 00:45:21;;;;;;;181.30;44.67;;;4.00;99.90;;;;;;5134629;27;20721;-53
2021/12/24 00:47:51;;;;;;;250.57;46.87;;;4.00;99.90;;;;;;5134519;27;20239;-53
2021/12/24 00:50:25;;;;;;;237.30;43.23;;;4.00;99.90;;;;;;5134463;27;20689;-54
2021/12/24 00:52:58;;;;;;;310.63;45.93;;;4.10;99.90;;;;;;5142068;27;20215;-54
2021/12/24 00:55:27;;;;;;;357.17;49.23;;;4.10;99.90;;;;;;5136993;27;20602;-55
2021/12/24 00:57:58;;;;;;;508.17;63.50;;;4.10;99.90;;;;;;5134547;27;20207;-54
2021/12/24 01:00:29;;;;;;;309.07;50.13;;;4.10;99.90;;;;;;5117362;27;20668;-55
2021/12/24 01:03:00;;;;;;;125.40;38.67;;;4.20;99.90;;;;;;5116082;27;20231;-53
2021/12/24 01:05:30;;;;;;;172.90;47.13;;;4.20;99.90;;;;;;5133813;27;20228;-54
2021/12/24 01:07:59;;;;;;;89.80;38.53;;;4.20;99.90;;;;;;5134339;27;20207;-54
2021/12/24 01:10:30;;;;;;;102.43;42.47;;;4.30;99.90;;;;;;5133902;27;20666;-54
2021/12/24 01:12:59;;;;;;;139.53;48.57;;;4.30;99.90;;;;;;5134273;27;20274;-54
2021/12/24 01:15:29;;;;;;;71.87;36.83;;;4.30;99.90;;;;;;5147966;27;20219;-55
2021/12/24 01:18:04;;;;;;;310.13;59.97;;;4.40;99.90;;;;;;5154612;27;20237;-54
2021/12/24 01:20:42;;;;;;;63.23;36.63;;;4.40;99.90;;;;;;5154958;27;20244;-53
2021/12/24 01:25:55;;;;;;;55.47;33.10;;;4.50;99.90;;;;;;5154945;27;20236;-54
2021/12/24 01:39:25;;;;;;;64.93;35.53;;;4.60;99.90;;;;;;5112824;28;20195;-54
2021/12/24 01:44:39;;;;;;;88.33;40.60;;;4.60;99.90;;;;;;5122167;27;20231;-53
2021/12/24 01:47:09;;;;;;;68.57;38.03;;;4.60;99.90;;;;;;5132947;27;20255;-53
2021/12/24 01:49:37;;;;;;;94.47;41.37;;;4.70;99.90;;;;;;5134019;27;20260;-54
2021/12/24 01:52:07;;;;;;;63.70;37.00;;;4.70;99.90;;;;;;5133704;27;20198;-54
2021/12/24 01:54:36;;;;;;;83.27;38.03;;;4.70;99.90;;;;;;5143631;27;20248;-53
2021/12/24 01:57:05;;;;;;;142.60;46.47;;;4.80;99.90;;;;;;5132672;27;20233;-54
2021/12/24 01:59:33;;;;;;;71.07;36.83;;;4.80;99.90;;;;;;5133149;27;20207;-54
2021/12/24 02:02:01;;;;;;;66.97;37.03;;;4.80;99.90;;;;;;5133162;27;20217;-53
2021/12/24 02:04:29;;;;;;;98.50;37.93;;;4.90;99.90;;;;;;5133065;27;20222;-54
2021/12/24 02:06:58;;;;;;;90.43;40.07;;;4.90;99.90;;;;;;5133076;27;20248;-54
2021/12/24 02:09:27;;;;;;;92.30;40.50;;;4.90;99.90;;;;;;5133020;27;20203;-54
2021/12/24 02:11:55;;;;;;;75.30;38.27;;;4.90;99.90;;;;;;5125662;27;20203;-54
2021/12/24 02:14:31;;;;;;;95.20;41.67;;;5.00;99.90;;;;;;5117614;27;20214;-55
2021/12/24 02:17:24;;;;;;;59.57;33.67;;;5.00;99.90;;;;;;5133514;27;20205;-54
2021/12/24 02:28:36;;;;;;;53.43;31.40;;;5.10;99.90;;;;;;5125829;27;20577;-55
2021/12/24 02:31:05;;;;;;;47.67;30.60;;;5.00;99.90;;;;;;5133091;27;20281;-54
2021/12/24 02:33:34;;;;;;;82.80;37.17;;;5.00;99.90;;;;;;5132307;27;20223;-54
2021/12/24 02:36:05;;;;;;;47.80;30.30;;;5.10;99.90;;;;;;5132218;27;20208;-54
2021/12/24 02:38:34;;;;;;;151.03;44.43;;;5.10;99.90;;;;;;5132388;27;20280;-54
2021/12/24 02:41:03;;;;;;;52.13;29.60;;;5.10;99.90;;;;;;5122109;27;20214;-54
2021/12/24 02:43:31;;;;;;;81.27;36.30;;;5.20;99.90;;;;;;5111537;28;20700;-53
2021/12/24 02:46:08;;;;;;;64.93;33.87;;;5.10;99.90;;;;;;5111743;28;20212;-54
2021/12/24 02:49:00;;;;;;;78.13;34.60;;;5.20;99.90;;;;;;5112248;28;20209;-54
2021/12/24 02:54:17;;;;;;;67.00;33.23;;;5.30;99.90;;;;;;5143160;27;20215;-54
2021/12/24 02:56:50;;;;;;;54.73;30.10;;;5.30;99.90;;;;;;5131539;27;20262;-53
2021/12/24 02:59:25;;;;;;;55.57;30.43;;;5.30;99.90;;;;;;5124949;27;20218;-55
2021/12/24 03:01:54;;;;;;;58.13;30.00;;;5.30;99.90;;;;;;5111867;28;20607;-54
2021/12/24 03:04:23;;;;;;;62.90;29.87;;;5.30;99.90;;;;;;5111360;28;20727;-54
2021/12/24 03:06:54;;;;;;;52.60;27.17;;;5.40;99.90;;;;;;5114305;28;20191;-53
2021/12/24 03:09:23;;;;;;;57.30;29.90;;;5.30;99.90;;;;;;5132056;27;20206;-55
2021/12/24 03:11:53;;;;;;;42.83;25.93;;;5.40;99.90;;;;;;5131538;27;20238;-54
2021/12/24 03:14:22;;;;;;;43.57;25.47;;;5.40;99.90;;;;;;5135872;27;20698;-54
2021/12/24 03:16:57;;;;;;;44.37;25.27;;;5.50;99.90;;;;;;5153261;27;20620;-53
2021/12/24 03:19:26;;;;;;;40.23;25.00;;;5.50;99.90;;;;;;5152883;27;20243;-54
2021/12/24 03:21:59;;;;;;;49.73;27.30;;;5.60;99.90;;;;;;5135153;27;20203;-54
2021/12/24 03:24:37;;;;;;;35.50;22.67;;;5.70;99.90;;;;;;5131410;28;20231;-54
2021/12/24 03:27:07;;;;;;;43.13;24.27;;;5.60;99.90;;;;;;5136928;27;20531;-54
2021/12/24 03:29:36;;;;;;;36.10;23.63;;;5.70;99.90;;;;;;5143943;27;20553;-55
2021/12/24 03:32:06;;;;;;;42.53;24.80;;;5.70;99.90;;;;;;5131849;28;20203;-54
2021/12/24 03:34:34;;;;;;;40.67;24.57;;;5.70;99.90;;;;;;5132025;28;20223;-54
2021/12/24 03:37:05;;;;;;;38.33;23.03;;;5.80;99.90;;;;;;5131438;27;20203;-54
2021/12/24 03:39:34;;;;;;;33.40;21.63;;;5.80;99.90;;;;;;5131807;28;20213;-54
2021/12/24 03:42:02;;;;;;;49.67;26.37;;;5.80;99.90;;;;;;5131633;28;20207;-54
2021/12/24 03:44:36;;;;;;;41.33;23.53;;;5.80;99.90;;;;;;5123367;28;20652;-54
2021/12/24 03:47:09;;;;;;;41.47;23.57;;;5.80;99.90;;;;;;5131749;28;20754;-54
2021/12/24 03:49:44;;;;;;;30.40;20.37;;;5.80;99.90;;;;;;5131141;28;20736;-54
2021/12/24 03:52:33;;;;;;;40.13;23.93;;;5.90;99.90;;;;;;5127961;27;20636;-53
2021/12/24 03:55:00;;;;;;;35.17;20.77;;;5.90;99.90;;;;;;5137632;27;20225;-53
2021/12/24 03:57:30;;;;;;;32.17;19.87;;;5.90;99.90;;;;;;5131718;28;20218;-53
2021/12/24 04:00:02;;;;;;;29.57;19.83;;;5.90;99.90;;;;;;5118960;28;20267;-54
2021/12/24 04:02:30;;;;;;;25.67;18.43;;;5.90;99.90;;;;;;5111152;28;20251;-53
2021/12/24 04:04:58;;;;;;;25.60;16.60;;;5.90;99.90;;;;;;5111148;28;20243;-53
2021/12/24 04:07:28;;;;;;;20.30;14.13;;;5.90;99.90;;;;;;5119601;28;20199;-55
2021/12/24 04:10:02;;;;;;;23.27;14.83;;;5.90;99.90;;;;;;5134700;27;20203;-54
2021/12/24 04:12:30;;;;;;;17.27;13.20;;;6.00;99.90;;;;;;5135434;27;20252;-55
2021/12/24 04:14:58;;;;;;;16.43;11.33;;;6.00;99.90;;;;;;5145518;27;20260;-55
2021/12/24 04:17:31;;;;;;;14.80;10.33;;;6.00;99.90;;;;;;5156172;27;20208;-53
2021/12/24 04:25:31;;;;;;;12.40;8.57;;;6.10;99.90;;;;;;5149741;27;20248;-54
2021/12/24 04:28:00;;;;;;;9.03;7.17;;;6.10;99.90;;;;;;5147305;27;20209;-54
2021/12/24 04:30:35;;;;;;;9.73;8.27;;;6.20;99.90;;;;;;5155942;27;20320;-54
2021/12/24 04:33:08;;;;;;;7.60;6.60;;;6.20;99.90;;;;;;5149383;27;20250;-54
2021/12/24 04:35:43;;;;;;;7.73;6.93;;;6.20;99.90;;;;;;5134295;27;20228;-54
2021/12/24 04:38:37;;;;;;;7.83;6.73;;;6.20;99.90;;;;;;5134996;27;20204;-55
2021/12/24 04:52:20;;;;;;;9.63;7.53;;;6.40;99.90;;;;;;5134135;27;20286;-53
2021/12/24 05:03:08;;;;;;;7.63;6.23;;;6.50;99.90;;;;;;5114382;28;20203;-53
2021/12/24 05:05:44;;;;;;;6.90;6.13;;;6.50;99.90;;;;;;5113481;28;20262;-54
2021/12/24 05:08:20;;;;;;;8.17;6.70;;;6.50;99.90;;;;;;5128702;27;20647;-55
2021/12/24 05:10:51;;;;;;;8.20;7.10;;;6.50;99.90;;;;;;5134192;27;20212;-54
2021/12/24 05:13:21;;;;;;;8.03;6.63;;;6.50;99.90;;;;;;5134072;27;20236;-53
2021/12/24 05:15:54;;;;;;;9.23;7.10;;;6.50;99.90;;;;;;5152284;27;20194;-51
2021/12/24 05:18:47;;;;;;;8.47;7.13;;;6.50;99.90;;;;;;5154882;27;20572;-55
2021/12/24 05:21:33;;;;;;;9.20;7.33;;;6.50;99.90;;;;;;5153302;27;20231;-54
2021/12/24 05:24:02;;;;;;;7.67;6.57;;;6.50;99.90;;;;;;5133154;27;20266;-55
2021/12/24 05:26:32;;;;;;;8.17;6.40;;;6.50;99.90;;;;;;5133377;27;20203;-54
2021/12/24 05:29:01;;;;;;;8.30;6.23;;;6.60;99.90;;;;;;5117338;27;20682;-55
2021/12/24 05:31:30;;;;;;;8.63;7.30;;;6.60;99.90;;;;;;5133928;27;20260;-55
2021/12/24 05:33:59;;;;;;;10.63;7.10;;;6.60;99.90;;;;;;5134043;27;20635;-55
2021/12/24 05:36:27;;;;;;;11.27;8.30;;;6.60;99.90;;;;;;5133324;27;20209;-54
2021/12/24 05:38:56;;;;;;;12.87;9.60;;;6.60;99.90;;;;;;5133816;27;20203;-53
2021/12/24 05:41:24;;;;;;;18.33;12.40;;;6.50;99.90;;;;;;5133600;27;20206;-54
2021/12/24 05:43:54;;;;;;;27.43;15.80;;;6.50;99.90;;;;;;5133722;27;20288;-54
2021/12/24 05:46:36;;;;;;;81.57;26.70;;;6.50;99.90;;;;;;5112948;28;20640;-54
2021/12/24 05:49:05;;;;;;;50.80;20.67;;;6.50;99.90;;;;;;5112517;28;20687;-53
2021/12/24 05:51:34;;;;;;;95.70;20.50;;;6.40;99.90;;;;;;5112459;28;20730;-53
2021/12/24 05:54:02;;;;;;;322.17;32.97;;;6.40;99.90;;;;;;5124594;27;20221;-54
2021/12/24 05:56:31;;;;;;;125.30;22.97;;;6.40;99.90;;;;;;5129195;27;20207;-54
2021/12/24 05:59:00;;;;;;;86.17;22.33;;;6.40;99.90;;;;;;5112907;28;20193;-55
2021/12/24 06:01:28;;;;;;;88.20;22.23;;;6.30;99.90;;;;;;5112452;28;20631;-55
2021/12/24 06:03:57;;;;;;;39.90;18.67;;;6.30;99.90;;;;;;5112156;28;20313;-54
2021/12/24 06:06:25;;;;;;;34.67;18.70;;;6.30;99.90;;;;;;5112611;28;20238;-54
2021/12/24 06:08:53;;;;;;;55.97;20.23;;;6.30;99.90;;;;;;5112530;28;20203;-54
2021/12/24 06:11:21;;;;;;;25.13;16.43;;;6.30;99.90;;;;;;5112625;27;20674;-54
2021/12/24 06:13:53;;;;;;;33.30;17.20;;;6.30;99.90;;;;;;5112417;27;20637;-56
2021/12/24 06:16:23;;;;;;;26.53;16.43;;;6.40;99.90;;;;;;5133444;27;20252;-54
2021/12/24 06:18:51;;;;;;;101.73;20.90;;;6.40;99.90;;;;;;5131555;27;20229;-54
2021/12/24 06:21:19;;;;;;;25.47;15.57;;;6.30;99.90;;;;;;5132000;27;20252;-53
2021/12/24 06:23:48;;;;;;;31.37;15.77;;;6.30;99.90;;;;;;5134986;27;20270;-53
2021/12/24 06:26:16;;;;;;;61.60;22.33;;;6.30;99.90;;;;;;5139406;27;20808;-54
2021/12/24 06:28:45;;;;;;;35.27;16.70;;;6.30;99.90;;;;;;5132913;27;20197;-55
2021/12/24 06:31:13;;;;;;;21.80;14.50;;;6.30;99.90;;;;;;5132933;27;20248;-54
2021/12/24 06:33:42;;;;;;;18.90;14.13;;;6.30;99.90;;;;;;5132384;27;20799;-53
2021/12/24 06:36:11;;;;;;;43.20;15.50;;;6.40;99.90;;;;;;5132241;27;20213;-53
2021/12/24 06:38:39;;;;;;;91.67;18.47;;;6.40;99.90;;;;;;5132270;27;20289;-53
2021/12/24 06:41:09;;;;;;;36.67;15.47;;;6.30;99.90;;;;;;5130136;27;20230;-54
2021/12/24 06:43:37;;;;;;;39.80;14.90;;;6.30;99.90;;;;;;5112008;28;20228;-55
2021/12/24 06:46:11;;;;;;;21.73;14.07;;;6.40;99.90;;;;;;5111985;28;20261;-54
2021/12/24 06:48:41;;;;;;;15.67;12.50;;;6.30;99.90;;;;;;5111881;28;20652;-53
2021/12/24 06:51:10;;;;;;;14.70;11.77;;;6.40;99.90;;;;;;5111754;27;20202;-53
2021/12/24 06:53:38;;;;;;;14.07;10.60;;;6.40;99.90;;;;;;5122224;27;20230;-54
2021/12/24 06:56:07;;;;;;;14.47;10.23;;;6.40;99.90;;;;;;5131131;27;20236;-53
2021/12/24 06:58:35;;;;;;;13.30;9.43;;;6.50;99.90;;;;;;5131429;27;20243;-54
2021/12/24 07:01:03;;;;;;;13.43;10.13;;;6.50;99.90;;;;;;5111241;28;20630;-55
2021/12/24 07:03:31;;;;;;;12.07;9.33;;;6.50;99.90;;;;;;5111084;28;20753;-53
2021/12/24 07:06:00;;;;;;;12.90;9.60;;;6.50;99.90;;;;;;5111057;28;20230;-55
2021/12/24 07:08:29;;;;;;;15.93;11.33;;;6.50;99.90;;;;;;5128145;27;20250;-53
2021/12/24 07:10:57;;;;;;;16.33;11.83;;;6.50;99.90;;;;;;5111923;28;20207;-54
2021/12/24 07:13:27;;;;;;;15.47;12.17;;;6.50;99.90;;;;;;5111345;28;20313;-55
2021/12/24 07:15:55;;;;;;;13.10;11.07;;;6.50;99.90;;;;;;5116146;27;20198;-54
2021/12/24 07:18:23;;;;;;;13.90;10.47;;;6.50;99.90;;;;;;5130913;28;20287;-55
2021/12/24 07:20:52;;;;;;;12.70;10.60;;;6.50;99.90;;;;;;5128033;28;20251;-54
2021/12/24 07:23:20;;;;;;;14.20;10.90;;;6.50;99.90;;;;;;5131317;28;20201;-53
2021/12/24 07:25:49;;;;;;;13.73;10.40;;;6.50;99.90;;;;;;5131461;28;20253;-53
2021/12/24 07:28:17;;;;;;;14.03;10.97;;;6.50;99.90;;;;;;5131048;28;20670;-54
2021/12/24 07:30:45;;;;;;;14.77;10.27;;;6.50;99.90;;;;;;5130521;28;20233;-55
2021/12/24 07:33:14;;;;;;;15.33;11.70;;;6.60;99.90;;;;;;5134387;27;20614;-54
2021/12/24 07:35:43;;;;;;;18.87;13.57;;;6.60;99.90;;;;;;5132094;28;20221;-54
2021/12/24 07:38:13;;;;;;;13.53;11.40;;;6.60;99.90;;;;;;5131660;27;20203;-54
2021/12/24 07:40:41;;;;;;;18.93;12.63;;;6.60;99.90;;;;;;5124798;28;20266;-53
2021/12/24 07:43:11;;;;;;;22.83;13.77;;;6.60;99.90;;;;;;5110535;28;20204;-54
2021/12/24 07:45:42;;;;;;;15.77;12.00;;;6.60;99.90;;;;;;5115011;28;20269;-54
2021/12/24 07:48:13;;;;;;;16.57;11.80;;;6.60;99.90;;;;;;5114890;28;20230;-54
2021/12/24 07:53:28;;;;;;;17.10;13.00;;;6.60;99.90;;;;;;5120412;27;20263;-53
2021/12/24 07:55:58;;;;;;;20.13;13.80;;;6.70;99.90;;;;;;5115260;28;20206;-54
2021/12/24 07:58:27;;;;;;;18.37;13.60;;;6.70;99.90;;;;;;5125120;27;20193;-54
2021/12/24 08:00:55;;;;;;;16.63;12.80;;;6.70;99.90;;;;;;5114674;28;20234;-54
2021/12/24 08:03:27;;;;;;;18.57;13.10;;;6.80;99.90;;;;;;5115046;28;20302;-54
2021/12/24 08:05:55;;;;;;;15.40;13.70;;;6.80;99.90;;;;;;5115504;27;20726;-54
2021/12/24 08:08:23;;;;;;;18.77;14.93;;;6.80;99.90;;;;;;5120209;27;20202;-56
2021/12/24 08:10:51;;;;;;;20.67;14.13;;;6.80;99.90;;;;;;5131010;27;20205;-56
2021/12/24 08:13:19;;;;;;;15.73;13.17;;;6.80;99.90;;;;;;5130557;27;20264;-53
2021/12/24 08:15:53;;;;;;;18.90;14.17;;;6.90;99.90;;;;;;5134362;27;20201;-54
2021/12/24 08:18:21;;;;;;;17.23;13.87;;;6.90;99.90;;;;;;5119324;27;20212;-53
2021/12/24 08:20:51;;;;;;;20.23;15.20;;;6.80;99.90;;;;;;5126974;27;20258;-53
2021/12/24 08:23:20;;;;;;;22.33;17.03;;;6.80;99.90;;;;;;5129904;27;20275;-54
2021/12/24 08:25:48;;;;;;;21.90;15.07;;;6.90;99.90;;;;;;5134836;27;20291;-54
2021/12/24 08:28:17;;;;;;;20.03;14.63;;;6.90;99.90;;;;;;5138161;27;20635;-54
2021/12/24 08:30:49;;;;;;;19.50;14.97;;;6.90;99.90;;;;;;5134143;27;20293;-55
2021/12/24 08:33:21;;;;;;;16.50;13.13;;;6.80;99.90;;;;;;5134198;27;20582;-54
2021/12/24 08:35:51;;;;;;;18.97;13.90;;;6.90;99.90;;;;;;5133450;27;20234;-54
2021/12/24 08:38:21;;;;;;;20.50;13.93;;;7.00;99.90;;;;;;5134337;27;20290;-53
2021/12/24 08:40:50;;;;;;;20.50;14.17;;;7.00;99.90;;;;;;5132830;27;20213;-53
2021/12/24 08:43:20;;;;;;;16.83;14.27;;;6.90;99.90;;;;;;5133767;27;20210;-54
2021/12/24 08:45:50;;;;;;;18.20;14.30;;;7.00;99.90;;;;;;5134099;27;20230;-54
2021/12/24 08:48:19;;;;;;;20.70;15.00;;;7.00;99.90;;;;;;5133728;27;20249;-54
2021/12/24 08:50:47;;;;;;;18.30;14.67;;;7.10;99.90;;;;;;5133530;27;20243;-53
2021/12/24 08:53:16;;;;;;;20.00;14.73;;;7.10;99.90;;;;;;5133912;27;20339;-54
2021/12/24 08:55:44;;;;;;;19.90;14.63;;;7.10;99.90;;;;;;5133297;27;20256;-54
2021/12/24 08:58:12;;;;;;;18.27;14.40;;;7.20;99.90;;;;;;5134132;27;20259;-53
2021/12/24 09:00:40;;;;;;;19.53;14.60;;;7.20;99.90;;;;;;5131964;27;20583;-53
2021/12/24 09:03:10;;;;;;;21.43;14.97;;;7.20;99.90;;;;;;5130245;27;20286;-53
2021/12/24 09:05:38;;;;;;;19.37;14.47;;;7.20;99.90;;;;;;5133547;27;20229;-54
2021/12/24 09:08:06;;;;;;;20.97;15.20;;;7.20;99.90;;;;;;5133477;27;20278;-54
2021/12/24 09:10:34;;;;;;;19.20;14.23;;;7.20;99.90;;;;;;5133688;27;20258;-53
2021/12/24 09:13:03;;;;;;;23.03;14.77;;;7.20;99.90;;;;;;5133496;27;20715;-54
2021/12/24 09:15:31;;;;;;;21.60;15.57;;;7.20;99.90;;;;;;5130896;27;20641;-53
2021/12/24 09:18:15;;;;;;;18.73;14.70;;;7.30;99.90;;;;;;5133488;27;20224;-55
2021/12/24 09:20:46;;;;;;;21.27;16.07;;;7.30;99.90;;;;;;5125378;27;20285;-54
2021/12/24 09:23:31;;;;;;;20.80;15.47;;;7.30;99.90;;;;;;5133270;27;20681;-54
2021/12/24 09:26:23;;;;;;;25.90;16.83;;;7.40;99.90;;;;;;5133459;27;20233;-53
2021/12/24 09:28:51;;;;;;;22.07;16.40;;;7.40;99.90;;;;;;5133158;27;20251;-54
2021/12/24 09:31:19;;;;;;;19.53;16.07;;;7.40;99.90;;;;;;5129771;27;20832;-53
2021/12/24 09:33:48;;;;;;;25.57;17.33;;;7.50;99.90;;;;;;5130166;27;20655;-54
2021/12/24 09:36:23;;;;;;;23.23;15.93;;;7.50;99.90;;;;;;5132267;27;20636;-52
2021/12/24 09:38:52;;;;;;;26.43;16.70;;;7.60;99.90;;;;;;5131003;27;20727;-53
2021/12/24 09:41:20;;;;;;;22.07;16.83;;;7.60;99.90;;;;;;5121231;27;20207;-55
2021/12/24 09:43:49;;;;;;;26.27;17.92;;;7.60;99.90;;;;;;5127976;27;20472;-55
2021/12/24 09:46:17;;;;;;;23.97;16.77;;;7.70;99.90;;;;;;5132810;27;20258;-55
2021/12/24 09:48:46;;;;;;;21.73;15.83;;;7.70;99.90;;;;;;5133081;27;20229;-55
2021/12/24 09:51:14;;;;;;;22.43;16.10;;;7.70;99.90;;;;;;5132763;27;20621;-55
2021/12/24 09:53:44;;;;;;;23.63;16.70;;;7.70;99.90;;;;;;5132696;27;20279;-53
2021/12/24 09:56:12;;;;;;;21.83;16.30;;;7.70;99.90;;;;;;5132474;27;20683;-56
2021/12/24 09:58:40;;;;;;;20.27;16.40;;;7.70;99.90;;;;;;5132144;27;20214;-55
2021/12/24 10:01:08;;;;;;;21.13;16.27;;;7.80;99.90;;;;;;5132696;27;20255;-54
2021/12/24 10:03:39;;;;;;;23.33;16.73;;;7.80;99.90;;;;;;5131620;27;20233;-53
2021/12/24 10:06:07;;;;;;;23.30;17.83;;;7.80;99.90;;;;;;5130621;27;20259;-53
2021/12/24 10:08:35;;;;;;;23.23;17.50;;;7.80;99.90;;;;;;5132810;27;20207;-52
2021/12/24 10:11:09;;;;;;;21.13;16.33;;;7.80;99.90;;;;;;5131458;27;20899;-56
2021/12/24 10:13:41;;;;;;;21.47;16.33;;;7.80;99.90;;;;;;5132633;27;20243;-53
2021/12/24 10:16:13;;;;;;;21.20;15.83;;;7.90;99.90;;;;;;5129505;27;20203;-55
2021/12/24 10:18:44;;;;;;;21.20;15.77;;;7.80;99.90;;;;;;5132473;27;20235;-55
2021/12/24 10:21:14;;;;;;;21.63;15.93;;;7.80;99.90;;;;;;5124312;27;20588;-53
2021/12/24 10:23:49;;;;;;;23.30;16.53;;;7.80;99.90;;;;;;5126867;27;20291;-53
2021/12/24 10:26:21;;;;;;;22.63;16.83;;;7.80;99.90;;;;;;5130017;27;20219;-54
2021/12/24 10:28:53;;;;;;;22.70;17.30;;;7.90;99.90;;;;;;5135178;27;20206;-55
2021/12/24 10:31:35;;;;;;;25.30;17.20;;;7.90;99.90;;;;;;5128692;27;20209;-53
2021/12/24 10:34:15;;;;;;;20.03;15.50;;;7.90;99.90;;;;;;5132594;27;20226;-53
2021/12/24 10:36:55;;;;;;;22.93;15.90;;;7.90;99.90;;;;;;5131710;27;20212;-54
2021/12/24 10:39:26;;;;;;;22.33;16.37;;;7.90;99.90;;;;;;5132533;27;20211;-53
2021/12/24 10:41:59;;;;;;;19.17;15.83;;;8.00;99.90;;;;;;5131525;27;20203;-55
2021/12/24 10:44:33;;;;;;;22.13;16.60;;;7.90;99.90;;;;;;5132359;27;20280;-55
2021/12/24 10:47:06;;;;;;;24.13;16.43;;;7.90;99.90;;;;;;5131957;27;20775;-55
2021/12/24 10:49:54;;;;;;;20.97;15.90;;;7.90;99.90;;;;;;5131359;27;20211;-54
2021/12/24 10:55:15;;;;;;;25.27;17.90;;;7.80;99.90;;;;;;5119394;27;20302;-52
2021/12/24 10:57:47;;;;;;;26.17;16.67;;;7.90;99.90;;;;;;5131291;27;20585;-54
2021/12/24 11:00:20;;;;;;;24.13;16.40;;;7.90;99.90;;;;;;5129256;27;20266;-55
2021/12/24 11:02:53;;;;;;;21.67;15.67;;;7.90;99.90;;;;;;5132316;27;20228;-51
2021/12/24 11:05:28;;;;;;;21.43;15.33;;;7.90;99.90;;;;;;5131116;27;20278;-55
2021/12/24 11:07:58;;;;;;;22.70;15.73;;;7.80;99.90;;;;;;5130435;27;20203;-55
2021/12/24 11:10:28;;;;;;;21.23;16.40;;;7.80;99.90;;;;;;5130249;27;20207;-56
2021/12/24 11:13:02;;;;;;;21.10;15.83;;;7.80;99.90;;;;;;5129984;27;20295;-52
2021/12/24 11:15:33;;;;;;;25.33;16.73;;;7.80;99.90;;;;;;5129907;27;20291;-55
2021/12/24 11:18:03;;;;;;;23.97;15.50;;;7.80;99.90;;;;;;5129086;27;20701;-56
2021/12/24 11:20:32;;;;;;;23.33;14.87;;;7.80;99.90;;;;;;5130692;28;20230;-56
2021/12/24 11:23:04;;;;;;;104.33;53.53;;;7.80;99.90;;;;;;5131482;28;20203;-55
2021/12/24 11:25:35;;;;;;;21.57;14.23;;;7.80;99.90;;;;;;5131963;28;20263;-53
2021/12/24 11:28:05;;;;;;;15.27;12.43;;;7.80;99.90;;;;;;5131720;28;20225;-55
2021/12/24 11:30:37;;;;;;;20.67;12.67;;;7.80;99.90;;;;;;5131459;28;20260;-54
2021/12/24 11:33:06;;;;;;;20.30;12.10;;;7.90;99.90;;;;;;5132236;28;20213;-54
2021/12/24 11:35:34;;;;;;;17.83;12.23;;;7.90;99.90;;;;;;5131796;28;20226;-55
2021/12/24 11:38:02;;;;;;;18.57;12.60;;;7.90;99.90;;;;;;5132021;28;20900;-54
2021/12/24 11:40:31;;;;;;;21.07;12.73;;;7.90;99.90;;;;;;5131633;28;20225;-55
2021/12/24 11:43:03;;;;;;;19.60;13.53;;;7.90;99.90;;;;;;5131486;28;20240;-54
2021/12/24 11:45:34;;;;;;;21.67;13.67;;;7.90;99.90;;;;;;5131878;28;20233;-54
2021/12/24 11:48:03;;;;;;;16.83;11.20;;;8.00;99.90;;;;;;5131510;28;20226;-54
2021/12/24 11:50:33;;;;;;;15.97;10.67;;;8.10;99.90;;;;;;5131118;28;20206;-54
2021/12/24 11:53:02;;;;;;;18.93;12.00;;;8.10;99.90;;;;;;5131607;28;20236;-54
2021/12/24 11:55:36;;;;;;;17.83;10.80;;;8.10;99.90;;;;;;5128863;27;20764;-54
2021/12/24 11:58:06;;;;;;;20.20;11.90;;;8.20;99.90;;;;;;5129849;28;20209;-55
2021/12/24 12:00:38;;;;;;;14.30;10.97;;;8.20;99.90;;;;;;5109420;27;20207;-55
2021/12/24 12:03:08;;;;;;;15.43;10.60;;;8.10;99.90;;;;;;5121879;28;20212;-56
2021/12/24 12:05:38;;;;;;;14.37;10.00;;;8.10;99.90;;;;;;5130313;27;20279;-56
2021/12/24 12:08:33;;;;;;;18.43;9.70;;;8.20;99.90;;;;;;5130891;28;20264;-54
2021/12/24 12:11:04;;;;;;;18.57;10.60;;;8.20;99.90;;;;;;5120433;28;20814;-54
2021/12/24 12:13:41;;;;;;;17.33;11.40;;;8.20;99.90;;;;;;5130842;28;20627;-53
2021/12/24 12:16:13;;;;;;;13.47;10.37;;;8.10;99.90;;;;;;5131069;28;20206;-55
2021/12/24 12:18:47;;;;;;;16.15;11.88;;;8.10;99.90;;;;;;5128313;28;20433;-54
2021/12/24 12:21:21;;;;;;;16.33;11.10;;;8.30;99.90;;;;;;5131265;28;20206;-53
2021/12/24 12:27:01;;;;;;;14.17;10.77;;;8.20;99.90;;;;;;5128191;28;20622;-56
2021/12/24 12:29:33;;;;;;;13.80;10.80;;;8.20;99.90;;;;;;5131520;27;20259;-54
2021/12/24 12:32:28;;;;;;;17.23;10.93;;;8.20;99.90;;;;;;5130787;27;20632;-54
2021/12/24 12:35:01;;;;;;;17.07;11.40;;;8.20;99.90;;;;;;5123542;27;20291;-55
2021/12/24 12:37:32;;;;;;;17.47;11.13;;;8.20;99.90;;;;;;5134016;27;20263;-53
2021/12/24 12:40:06;;;;;;;16.03;10.63;;;8.20;99.90;;;;;;5134344;27;20268;-54
2021/12/24 12:43:08;;;;;;;16.90;12.17;;;8.30;99.90;;;;;;5133952;27;20264;-53
2021/12/24 12:46:04;;;;;;;16.20;11.27;;;8.30;99.90;;;;;;5134360;27;20233;-55
2021/12/24 12:48:52;;;;;;;21.47;13.40;;;8.30;99.90;;;;;;5133890;27;20569;-55
2021/12/24 12:51:43;;;;;;;22.83;15.97;;;8.30;99.90;;;;;;5133690;27;20205;-55
2021/12/24 12:54:37;;;;;;;41.53;24.97;;;8.30;99.90;;;;;;5129581;27;20226;-53
2021/12/24 12:57:18;;;;;;;35.87;22.93;;;8.30;99.90;;;;;;5133313;27;20214;-54
2021/12/24 13:00:17;;;;;;;32.13;20.57;;;8.30;99.90;;;;;;5131587;27;20567;-54
2021/12/24 13:03:09;;;;;;;23.63;16.97;;;8.20;99.90;;;;;;5129193;27;20260;-54
2021/12/24 13:06:05;;;;;;;28.47;17.67;;;8.20;99.90;;;;;;5113187;27;20738;-55
2021/12/24 13:08:36;;;;;;;25.00;15.60;;;8.20;99.90;;;;;;5130174;27;20223;-55
2021/12/24 13:11:08;;;;;;;21.87;15.80;;;8.20;99.90;;;;;;5132681;27;20264;-55
2021/12/24 13:13:52;;;;;;;22.83;14.10;;;8.20;99.90;;;;;;5132856;27;20585;-55
2021/12/24 13:16:23;;;;;;;33.57;24.30;;;8.20;99.90;;;;;;5133609;27;20206;-55
2021/12/24 13:18:59;;;;;;;38.93;26.90;;;8.20;99.90;;;;;;5133758;27;20203;-53
2021/12/24 13:24:16;;;;;;;24.70;15.30;;;8.30;99.90;;;;;;5117073;27;20231;-55
2021/12/24 13:26:48;;;;;;;25.20;16.77;;;8.30;99.90;;;;;;5128673;27;20226;-54
2021/12/24 13:29:17;;;;;;;22.70;13.87;;;8.20;99.90;;;;;;5133768;27;20214;-54
2021/12/24 13:31:54;;;;;;;21.07;13.07;;;8.30;99.90;;;;;;5134205;27;20224;-55
2021/12/24 13:34:23;;;;;;;22.33;12.83;;;8.30;99.90;;;;;;5133876;27;20282;-55
2021/12/24 13:36:54;;;;;;;18.63;11.27;;;8.30;99.90;;;;;;5133368;27;20279;-55
2021/12/24 13:39:24;;;;;;;18.90;11.90;;;8.40;99.90;;;;;;5133963;27;20255;-54
2021/12/24 13:42:01;;;;;;;15.40;11.40;;;8.30;99.90;;;;;;5133014;27;20206;-54
2021/12/24 13:44:32;;;;;;;15.73;11.07;;;8.40;99.90;;;;;;5133539;27;20275;-53
2021/12/24 13:47:09;;;;;;;19.07;11.37;;;8.40;99.90;;;;;;5133591;27;20211;-55
2021/12/24 13:55:30;;;;;;;16.80;10.77;;;8.40;99.90;;;;;;5133272;27;20263;-55
2021/12/24 13:58:04;;;;;;;17.60;10.40;;;8.30;99.90;;;;;;5117007;27;20655;-54
2021/12/24 14:00:35;;;;;;;13.33;9.80;;;8.30;99.90;;;;;;5112709;28;20200;-55
2021/12/24 14:03:06;;;;;;;16.37;10.20;;;8.40;99.90;;;;;;5111519;28;20237;-53
2021/12/24 14:05:44;;;;;;;14.00;9.53;;;8.40;99.90;;;;;;5110955;28;20226;-53
2021/12/24 14:08:17;;;;;;;16.67;9.30;;;8.30;99.90;;;;;;5128906;27;20479;-56
2021/12/24 14:10:48;;;;;;;16.37;9.80;;;8.30;99.90;;;;;;5131131;27;20694;-56
2021/12/24 14:13:20;;;;;;;16.53;10.03;;;8.20;99.90;;;;;;5130695;27;20576;-55
2021/12/24 14:16:03;;;;;;;15.13;8.90;;;8.20;99.90;;;;;;5131712;27;20855;-54
2021/12/24 14:18:44;;;;;;;14.90;8.73;;;8.30;99.90;;;;;;5153518;27;20197;-54
2021/12/24 14:24:13;;;;;;;16.33;10.90;;;8.30;99.90;;;;;;5150580;27;20661;-53
2021/12/24 14:26:45;;;;;;;14.00;10.67;;;8.30;99.90;;;;;;5132728;27;20203;-55
2021/12/24 14:29:14;;;;;;;18.23;9.73;;;8.20;99.90;;;;;;5132957;27;20223;-53